• Join FlightAware (Why Join?)
  • Login
  • US Flag 
02:59PM EDT


 

Airport Tracker/Info


-or-


 

Live Flight TrackerFlight Track Log ✈ NSH339 ✈ 28-Jun-2013 ✈ KDSM - KHIB

Flight Track Log - Related Links

Times and Time Zones

All times are in EDT time to prevent confusion due to time zone crossing. See the NSH339 flight status page for this flight to view local times or setup timezone preferences in your user account.

Time Position Orientation Groundspeed Altitude Reporting Facility
EDT Latitude Longitude Course Direction KTS MPH feet Rate Location/Type
03:31PM 41.5472 -93.6606 313° West 131 151 1,700  Level Minneapolis Center
03:32PM 41.5819 -93.7108 313° West 169 194 4,800 2,880 Climbing Minneapolis Center
03:33PM 41.6389 -93.7269 348° North 206 237 7,900 2,640 Climbing Minneapolis Center
03:34PM 41.7028 -93.7308 357° North 234 269 10,300 2,520 Climbing Minneapolis Center
03:35PM 41.7672 -93.7178 North 237 273 13,200 2,520 Climbing Minneapolis Center
03:36PM 41.8325 -93.7061 North 238 274 15,600 2,220 Climbing Minneapolis Center
03:37PM 41.9008 -93.7011 North 245 282 17,800 1,980 Climbing Minneapolis Center
03:38PM 41.9683 -93.6892 North 249 287 19,800 1,980 Climbing Minneapolis Center
03:39PM 42.0553 -93.6758 North 262 302 22,000 2,100 Climbing Minneapolis Center
03:40PM 42.1297 -93.6631 North 269 310 24,200 1,860 Climbing Minneapolis Center
03:41PM 42.2042 -93.6511 North 272 313 25,900 1,620 Climbing Minneapolis Center
03:42PM 42.2786 -93.6431 North 270 311 27,600 1,500 Climbing Minneapolis Center
03:43PM 42.3686 -93.6267 North 274 315 29,100 1,380 Climbing Minneapolis Center
03:44PM 42.4472 -93.6172 North 281 323 30,500 1,260 Climbing Minneapolis Center
03:45PM 42.5264 -93.6058 North 286 329 31,800 1,020 Climbing Minneapolis Center
03:46PM 42.6058 -93.5972 North 288 331 32,700 1,020 Climbing Minneapolis Center
03:47PM 42.6875 -93.5847 North 293 337 34,000 1,080 Climbing Minneapolis Center
03:48PM 42.7822 -93.5708 North 290 334 35,000 480 Climbing Minneapolis Center
03:49PM 42.8686 -93.5583 North 307 353 35,000  Level Minneapolis Center
03:50PM 42.9631 -93.5442 North 336 387 35,000  Level Minneapolis Center
03:51PM 43.0600 -93.5311 North 348 400 35,000  Level Minneapolis Center
03:52PM 43.1600 -93.5169 North 359 413 35,000  Level Minneapolis Center
03:53PM 43.2789 -93.4997 North 361 415 35,000  Level Minneapolis Center
03:55PM 43.3792 -93.4850 North 363 418 35,000  Level Minneapolis Center
03:56PM 43.4775 -93.4697 North 360 414 35,000  Level Minneapolis Center
03:57PM 43.5850 -93.4522 North 361 415 35,000  Level Minneapolis Center
03:58PM 43.6836 -93.4381 North 359 413 35,000  Level Minneapolis Center
03:59PM 43.7836 -93.4225 North 362 417 35,000  Level Minneapolis Center
04:00PM 43.8825 -93.4086 North 358 412 35,000  Level Minneapolis Center
04:01PM 44.0014 -93.3892 North 360 414 35,000  Level Minneapolis Center
04:02PM 44.0997 -93.3744 North 357 411 35,000  Level Minneapolis Center
04:03PM 44.1989 -93.3597 North 360 414 35,000  Level Minneapolis Center
04:04PM 44.2981 -93.3433 North 361 415 35,000  Level Minneapolis Center
04:05PM 44.3964 -93.3281 North 358 412 35,000  Level Minneapolis Center
04:06PM 44.4961 -93.3131 North 361 415 35,000  Level Minneapolis Center
04:07PM 44.6142 -93.2944 North 356 410 35,000  Level Minneapolis Center
04:08PM 44.7028 -93.2800 North 363 418 35,000  Level Minneapolis Center
04:09PM 44.8219 -93.2631 North 364 419 35,000  Level Minneapolis Center
04:10PM 44.9236 -93.2456 North 359 413 35,000  Level Minneapolis Center
04:11PM 45.0239 -93.2297 North 362 417 35,000  Level Minneapolis Center
04:12PM 45.1242 -93.2139 North 364 419 35,000  Level Minneapolis Center
04:13PM 45.2247 -93.1983 North 364 419 35,000  Level Minneapolis Center
04:14PM 45.3264 -93.1822 North 367 422 35,000 -120 Level Minneapolis Center
04:16PM 45.4393 -93.1558 North  Level FlightAware Approximate
04:16PM 45.5497 -93.1469 North 370 426 34,700  Level Minneapolis Center
04:17PM 45.6561 -93.1281 North 382 440 33,000 -1,800 Descending Minneapolis Center
04:18PM 45.7675 -93.1114 North 397 457 31,000 -2,040 Descending Minneapolis Center
04:19PM 45.8847 -93.0917 North 419 482 28,800 -2,400 Descending Minneapolis Center
04:20PM 46.0278 -93.0672 North 430 495 26,000 -2,460 Descending Minneapolis Center
04:21PM 46.1447 -93.0481 North 427 491 23,700 -2,220 Descending Minneapolis Center
04:22PM 46.2483 -93.0314 North 411 473 21,500 -2,280 Descending Minneapolis Center
04:24PM 46.3575 -93.0147 North 398 458 19,000 -2,700 Descending Minneapolis Center
04:25PM 46.4825 -92.9931 North 382 440 16,000 -2,640 Descending Minneapolis Center
04:26PM 46.5828 -92.9661 10° North 371 427 13,600 -2,340 Descending Minneapolis Center
04:27PM 46.6719 -92.9069 24° Northeast 358 412 11,200 -1,740 Descending Minneapolis Center
04:28PM 46.7572 -92.9053 North 310 357 10,100 -1,500 Descending Minneapolis Center
04:29PM 46.8275 -92.9219 351° North 267 307 8,100 -2,040 Descending Minneapolis Center
04:30PM 46.8972 -92.9144 North 260 299 5,900 -2,220 Descending Minneapolis Center
04:31PM 46.9678 -92.8494 32° Northeast 253 291 3,500 -1,320 Descending Minneapolis Center
04:32PM 47.0258 -92.8103 25° Northeast 243 280 3,200 -180 Descending Minneapolis Center
04:33PM 47.0914 -92.7942 North 241 277 3,200  Level Minneapolis Center
04:34PM 47.1575 -92.7731 12° North 242 278 3,200  Level Minneapolis Center
04:35PM 47.2175 -92.7525 13° North 235 270 3,200  Level Minneapolis Center
04:36PM 47.2719 -92.7322 14° North 212 244 3,200  Level Minneapolis Center
04:38PM 47.3833 -92.8333 North  Level FlightAware Approximate
04:45PM 47.3866 -92.8390 North  Level Estimated
04:46PM 47.3833 -92.8333 North  Level FlightAware Approximate
04:47PM 47.3866 -92.8390 North  Level Estimated